Terminal Aerodrome Forecast
Issued by NWS El Paso, TX

Current Version | Previous Version | Text Only | Print | Product List | Glossary On
Versions: 1 2 3 4 5 6 7 8 9 10 11 12 13
000
FTUS44 KEPZ 231700
TAFELP
TAF
KELP 231720Z 2318/2418 25017G26KT P6SM SCT250
     FM231900 25021G33KT P6SM FEW250
      TEMPO 2320/2324 4SM BLDU
     FM240400 27015G27KT P6SM SKC
     FM240700 28010KT P6SM FEW300=

USA.gov is the U.S. government's official web portal to all federal, state and local government web resources and services.